Airfield :
LOGIN :

Register | Disclaimer

   EN    FR    IT 

 










Legend :    VFR   Marginal VFR   IFR   Intensive IFR   Very Intensive IFR
Visi :
Ceiling :
>= 8 km
>= 3000ft
5 to 8 km
1000 to 3000 ft
1500m to 5 km
500 to 1000 ft
800 to 1500m
200 to 500 ft
< 800m
< 200 ft
Symbols :   Thunderstorms  Fog  Heavy snow  Heavy precipitations  Wind > 20 kt
SIGMETs :     Misc.  Thunderstorms  Icing  Turbulence  Mountain Waves  Volcanic Ashes






- Airport Elevation : 154 ft
- IATA code : PKV


ULOO - Pskov

CURRENT METAR :
  • 271130Z 05005MPS 020V080 1400 1200NE R01/1500N SHSN BKN008 BKN016CB OVC029 M01/M01 Q0992 R01/593030 NOSIG RMK QFE739

EXPIRED METARs :
  • 271100Z 04005MPS 1300 1100NE R01/1500D SHSN BKN007 BKN017CB OVC029 M01/M01 Q0992 R01/593030 NOSIG RMK OBST OBSC QFE739
  • 271030Z 04005MPS 020V080 1500 R01/1500U SHSN BKN006 BKN017CB OVC029 M01/M01 Q0992 R01/590137 NOSIG RMK OBST OBSC QFE740
  • 271000Z 04005MPS 020V080 1100 1000NE R01/1600N SHSN BKN006 BKN017CB OVC029 M01/M01 Q0992 R01/590137 NOSIG RMK OBST OBSC QFE740
  • 270930Z 04005MPS 010V070 1600 R01/2000D SHSN BKN006 BKN016CB OVC029 M01/M01 Q0992 RESN R01/590137 NOSIG RMK OBST OBSC QFE740
  • 270900Z 04005MPS 1000 0650NE R01/1000U +SN VV005 M01/M01 Q0992 R01/590137 NOSIG RMK OBST OBSC QFE740

TAF TAF ULOO
Valid from the 27 at 12:00 until the 27 at 21:00 UTC


271056Z 2712/2721 06005G10MPS 1500 SN BKN005 OVC015
TEMPO 2712/2718 04005MPS 0900 +SHSN BKN003 BKN017CB
FM271800 05005G10MPS 3100 -SN BKN007 BKN015
TEMPO 2718/2721 1500 SHSNRA BKN005 BKN017CB



MET'MAP, your aeronautical weather chart ! - Copyright ORBIFLY December 2007 - Disclaimer

ORBIFLY MET'MAP TEAM :

Programming & Development : Alexandra Zaïnal
Concept & original design : Baudouin d'Aumeries
Assistance for programming : Marc-Olivier Méhu
Technical & hardware support : Manuel Goepfert

Contact : metmap@orbifly.com




SOURCES & CREDITS :

   NOAA